Terminal Aerodrome Forecast
Issued by NWS Albany, NY

Home | Current Version | Previous Version | Text Only | Print | Product List | Glossary On
Versions: 1 2 3 4 5 6 7 8 9 10 11 12 13 14 15 16 17 18 19 20 21 22 23 24 25 26 27
000
FTUS41 KALY 220500 CCA
TAFALB
TAF COR
KALB 220557Z 2206/2306 36008KT P6SM VCSH OVC009
      TEMPO 2206/2208 4SM BR SCT009 OVC020
     FM220800 36008KT P6SM VCSH SCT008 OVC015
      TEMPO 2208/2210 4SM BR OVC008
     FM221500 35010KT 5SM -SHRA BR OVC015
     FM222300 35012G19KT 4SM -RA BR SCT008 OVC012=

USA.gov is the U.S. government's official web portal to all federal, state and local government web resources and services.